Time;durP1;ratioP1;P1;durP2;ratioP2;P2;SDS_P1;SDS_P2;PMS_P1;PMS_P2;Temp;Humidity;BMP_temperature;BMP_pressure;BME280_temperature;BME280_humidity;BME280_pressure;Samples;Min_cycle;Max_cycle;Signal;HPM_P1;HPM_P2
2022/04/27 00:01:35;;;;;;;0.40;0.20;;;;;;;8.09;100.00;99482.44;4977763;28;20211;-75
2022/04/27 00:04:02;;;;;;;0.20;0.20;;;;;;;8.13;100.00;99475.66;4993990;28;20591;-76
2022/04/27 00:06:29;;;;;;;0.40;0.30;;;;;;;8.18;100.00;99483.03;5011674;28;20208;-77
2022/04/27 00:08:56;;;;;;;0.30;0.30;;;;;;;8.12;100.00;99481.22;4978233;28;20203;-77
2022/04/27 00:11:23;;;;;;;0.20;0.20;;;;;;;8.03;100.00;99479.75;4994163;28;20452;-79
2022/04/27 00:13:50;;;;;;;0.20;0.20;;;;;;;8.17;100.00;99473.38;5011955;28;20225;-76
2022/04/27 00:16:16;;;;;;;0.30;0.30;;;;;;;8.21;100.00;99472.75;4994376;28;20625;-76
2022/04/27 00:18:43;;;;;;;0.30;0.30;;;;;;;8.08;100.00;99470.09;5011637;28;20573;-78
2022/04/27 00:21:10;;;;;;;0.20;0.20;;;;;;;7.86;100.00;99464.19;5014334;28;20199;-77
2022/04/27 00:23:37;;;;;;;0.13;0.13;;;;;;;7.97;100.00;99466.25;4978888;28;20277;-76
2022/04/27 00:26:04;;;;;;;0.30;0.30;;;;;;;8.06;100.00;99461.50;4995802;28;20265;-77
2022/04/27 00:28:31;;;;;;;0.20;0.20;;;;;;;7.95;100.00;99462.13;4995150;28;20222;-75
2022/04/27 00:30:58;;;;;;;0.23;0.20;;;;;;;8.03;100.00;99469.09;4994407;28;20267;-76
2022/04/27 00:33:24;;;;;;;0.30;0.30;;;;;;;8.11;100.00;99471.56;4995644;28;20212;-76
2022/04/27 00:35:52;;;;;;;0.30;0.30;;;;;;;7.97;100.00;99466.25;4996014;28;20211;-75
2022/04/27 00:38:19;;;;;;;0.20;0.20;;;;;;;7.94;100.00;99444.47;4994602;28;20642;-76
2022/04/27 00:40:46;;;;;;;0.20;0.20;;;;;;;7.91;100.00;99458.22;4994105;28;20259;-76
2022/04/27 00:43:14;;;;;;;0.27;0.27;;;;;;;8.10;100.00;99459.25;4995407;28;20223;-77
2022/04/27 00:45:41;;;;;;;0.23;0.20;;;;;;;8.00;100.00;99469.50;4994169;28;20655;-75
2022/04/27 00:48:09;;;;;;;0.10;0.10;;;;;;;8.02;100.00;99470.97;4994444;28;20190;-75
2022/04/27 00:50:36;;;;;;;0.10;0.10;;;;;;;8.08;100.00;99461.28;5007583;28;20202;-76
2022/04/27 00:53:03;;;;;;;0.37;0.10;;;;;;;8.14;100.00;99455.94;5013752;28;20252;-76
2022/04/27 00:55:30;;;;;;;0.20;0.20;;;;;;;8.12;100.00;99466.00;5013542;28;20408;-76
2022/04/27 00:57:59;;;;;;;0.20;0.20;;;;;;;8.02;100.00;99462.97;5013537;28;20245;-78
2022/04/27 01:00:27;;;;;;;0.63;0.20;;;;;;;8.12;100.00;99466.00;4997544;28;20496;-78
2022/04/27 01:02:53;;;;;;;0.10;0.10;;;;;;;8.12;100.00;99478.53;5013359;28;20211;-76
2022/04/27 01:05:21;;;;;;;0.10;0.10;;;;;;;7.99;100.00;99463.34;5013689;28;20282;-77
2022/04/27 01:07:49;;;;;;;0.33;0.17;;;;;;;7.81;100.00;99476.50;4997196;28;20191;-75
2022/04/27 01:10:16;;;;;;;0.10;0.10;;;;;;;7.84;100.00;99492.91;5013162;28;20203;-75
2022/04/27 01:12:43;;;;;;;0.50;0.13;;;;;;;7.86;100.00;99474.84;5013075;28;20289;-76
2022/04/27 01:15:32;;;;;;;0.10;0.10;;;;;;;7.97;100.00;99479.59;4997806;28;20664;-76
2022/04/27 01:17:59;;;;;;;0.10;0.10;;;;;;;7.82;100.00;99480.81;5013815;28;20187;-78
2022/04/27 01:20:35;;;;;;;0.97;0.13;;;;;;;7.91;100.00;99475.06;4997476;28;20199;-77
2022/04/27 01:23:03;;;;;;;0.10;0.10;;;;;;;7.97;100.00;99476.91;5013347;28;20238;-76
2022/04/27 01:25:49;;;;;;;0.20;0.20;;;;;;;7.98;100.00;99483.03;4997131;28;20226;-76
2022/04/27 01:28:17;;;;;;;0.20;0.20;;;;;;;7.97;100.00;99468.91;4997334;28;20250;-75
2022/04/27 01:30:45;;;;;;;0.20;0.20;;;;;;;7.85;100.00;99477.72;5012466;28;20187;-78
2022/04/27 01:33:13;;;;;;;0.10;0.10;;;;;;;7.90;100.00;99480.59;4996539;28;20195;-76
2022/04/27 01:35:40;;;;;;;0.10;0.10;;;;;;;7.75;100.00;99483.47;5012777;28;20194;-76
2022/04/27 01:38:08;;;;;;;0.10;0.10;;;;;;;7.74;100.00;99486.34;4997020;28;20198;-77
2022/04/27 01:40:35;;;;;;;0.07;0.07;;;;;;;7.80;100.00;99498.84;4996648;28;20265;-76
2022/04/27 01:43:02;;;;;;;0.20;0.20;;;;;;;7.78;100.00;99485.75;5013803;28;20554;-75
2022/04/27 01:45:29;;;;;;;0.20;0.20;;;;;;;7.68;100.00;99490.66;5013172;28;20194;-77
2022/04/27 01:47:57;;;;;;;0.17;0.10;;;;;;;7.76;100.00;99489.63;4996775;28;20190;-75
2022/04/27 01:50:24;;;;;;;0.30;0.27;;;;;;;7.68;100.00;99490.66;4986282;28;20198;-77
2022/04/27 01:55:36;;;;;;;0.40;0.30;;;;;;;7.63;100.00;99495.78;4994002;28;20606;-76
2022/04/27 01:58:03;;;;;;;0.20;0.10;;;;;;;7.53;100.00;99492.69;4993154;28;20230;-75
2022/04/27 02:00:31;;;;;;;0.20;0.20;;;;;;;7.55;100.00;99492.50;5008745;28;20478;-75
2022/04/27 02:02:59;;;;;;;0.30;0.20;;;;;;;7.69;100.00;99481.63;5008534;28;20282;-76
2022/04/27 02:05:26;;;;;;;0.10;0.10;;;;;;;7.61;100.00;99471.16;5008665;28;20278;-75
2022/04/27 02:07:54;;;;;;;0.20;0.20;;;;;;;7.79;100.00;99478.56;4992112;28;20218;-76
2022/04/27 02:10:21;;;;;;;0.20;0.20;;;;;;;7.70;100.00;99482.47;4992637;28;20192;-76
2022/04/27 02:12:48;;;;;;;0.40;0.30;;;;;;;7.69;100.00;99496.81;4992636;28;20218;-76
2022/04/27 02:15:19;;;;;;;0.40;0.30;;;;;;;7.67;100.00;99494.34;5008957;28;20202;-77
2022/04/27 02:17:50;;;;;;;0.10;0.10;;;;;;;7.68;100.00;99495.16;4992231;28;20388;-75
2022/04/27 02:20:18;;;;;;;0.20;0.20;;;;;;;7.63;100.00;99505.63;5008748;28;20214;-76
2022/04/27 02:22:45;;;;;;;0.40;0.30;;;;;;;7.72;100.00;99507.88;5009022;28;20216;-76
2022/04/27 02:25:12;;;;;;;0.37;0.37;;;;;;;7.66;100.00;99506.03;5013051;28;20212;-75
2022/04/27 02:27:40;;;;;;;0.40;0.40;;;;;;;7.61;100.00;99505.81;5012922;28;20222;-75
2022/04/27 02:30:08;;;;;;;0.50;0.30;;;;;;;7.65;100.00;99509.72;5014907;28;20521;-76
2022/04/27 02:32:35;;;;;;;0.30;0.30;;;;;;;7.59;100.00;99504.38;5014721;28;20526;-75
2022/04/27 02:35:02;;;;;;;0.40;0.40;;;;;;;7.56;100.00;99505.59;5001320;28;20199;-76
2022/04/27 02:37:31;;;;;;;0.40;0.40;;;;;;;7.57;100.00;99515.25;4979747;28;20191;-76
2022/04/27 02:39:59;;;;;;;0.40;0.40;;;;;;;7.51;100.00;99511.53;5023136;28;20292;-76
2022/04/27 02:42:26;;;;;;;0.40;0.40;;;;;;;7.77;100.00;99505.44;4994751;28;20257;-77
2022/04/27 02:44:53;;;;;;;0.40;0.40;;;;;;;7.61;100.00;99520.97;4978887;28;20257;-75
2022/04/27 02:47:21;;;;;;;0.40;0.40;;;;;;;7.51;100.00;99522.19;4999990;28;20198;-76
2022/04/27 02:52:48;;;;;;;0.50;0.50;;;;;;;7.50;100.00;99528.59;5002958;28;20193;-76
2022/04/27 02:55:23;;;;;;;0.40;0.40;;;;;;;7.56;100.00;99524.25;5014761;28;20189;-76
2022/04/27 02:57:50;;;;;;;0.40;0.40;;;;;;;7.49;100.00;99526.94;4998275;28;20247;-75
2022/04/27 03:00:17;;;;;;;0.50;0.50;;;;;;;7.59;100.00;99539.03;5014596;28;20202;-78
2022/04/27 03:02:44;;;;;;;0.40;0.40;;;;;;;7.63;100.00;99532.28;5014495;28;20274;-76
2022/04/27 03:05:11;;;;;;;0.43;0.43;;;;;;;7.54;100.00;99531.66;5032241;28;20643;-76
2022/04/27 03:07:38;;;;;;;0.60;0.60;;;;;;;7.67;100.00;99526.34;5014789;28;20498;-76
2022/04/27 03:10:05;;;;;;;0.47;0.40;;;;;;;7.78;100.00;99539.09;5014878;28;20537;-75
2022/04/27 03:12:35;;;;;;;0.50;0.50;;;;;;;7.77;100.00;99534.75;5015372;28;20514;-78
2022/04/27 03:15:05;;;;;;;1.17;0.60;;;;;;;7.77;100.00;99532.09;4998237;28;20569;-77
2022/04/27 03:17:31;;;;;;;0.50;0.50;;;;;;;7.76;100.00;99529.63;5031769;28;20182;-76
2022/04/27 03:19:59;;;;;;;0.50;0.50;;;;;;;7.70;100.00;99522.47;4998490;28;20355;-78
2022/04/27 03:22:27;;;;;;;0.50;0.50;;;;;;;7.78;100.00;99527.59;5014245;28;20202;-76
2022/04/27 03:24:55;;;;;;;0.50;0.50;;;;;;;7.67;100.00;99530.84;5000550;28;20220;-77
2022/04/27 03:27:27;;;;;;;0.90;0.70;;;;;;;7.68;100.00;99527.16;5015177;28;20620;-78
2022/04/27 03:29:53;;;;;;;0.77;0.60;;;;;;;7.74;100.00;99534.34;5031538;28;20256;-76
2022/04/27 03:32:22;;;;;;;0.60;0.60;;;;;;;7.66;100.00;99540.69;5014192;28;20598;-76
2022/04/27 03:35:01;;;;;;;0.90;0.70;;;;;;;7.79;100.00;99535.38;5016033;28;20198;-76
2022/04/27 03:37:30;;;;;;;0.60;0.60;;;;;;;7.75;100.00;99538.66;5029794;28;20612;-76
2022/04/27 03:39:57;;;;;;;0.80;0.60;;;;;;;7.60;100.00;99543.38;5030296;28;20602;-76
2022/04/27 03:42:24;;;;;;;1.20;0.70;;;;;;;7.67;100.00;99545.00;5029927;28;20364;-75
2022/04/27 03:44:56;;;;;;;1.13;0.60;;;;;;;7.74;100.00;99548.53;5030407;28;20210;-76
2022/04/27 03:47:25;;;;;;;0.50;0.50;;;;;;;7.66;100.00;99550.53;5014026;28;20197;-76
2022/04/27 03:49:55;;;;;;;0.60;0.60;;;;;;;7.68;100.00;99551.16;5030144;28;20203;-75
2022/04/27 03:52:22;;;;;;;0.70;0.50;;;;;;;7.61;100.00;99553.81;5031591;28;20269;-75
2022/04/27 03:54:50;;;;;;;0.60;0.60;;;;;;;7.74;100.00;99559.19;5014858;28;20197;-75
2022/04/27 03:57:17;;;;;;;1.00;0.70;;;;;;;7.69;100.00;99563.47;5034300;28;20190;-76
2022/04/27 03:59:45;;;;;;;0.90;0.73;;;;;;;7.63;100.00;99564.28;5017776;28;20186;-76
2022/04/27 04:02:13;;;;;;;0.70;0.70;;;;;;;7.63;100.00;99559.78;5033786;28;20216;-76
2022/04/27 04:04:41;;;;;;;0.70;0.70;;;;;;;7.66;100.00;99575.34;5033998;28;20596;-76
2022/04/27 04:07:08;;;;;;;0.80;0.80;;;;;;;7.71;100.00;99570.25;5033988;28;20213;-77
2022/04/27 04:09:46;;;;;;;0.97;0.80;;;;;;;7.97;100.00;99586.31;5033418;28;20201;-74
2022/04/27 04:12:13;;;;;;;0.80;0.80;;;;;;;7.98;100.00;99590.59;5017600;28;20218;-74
2022/04/27 04:15:09;;;;;;;0.90;0.80;;;;;;;7.98;100.00;99587.09;4985983;28;20604;-76
2022/04/27 04:18:12;;;;;;;0.90;0.70;;;;;;;8.01;100.00;99593.88;5016516;28;20194;-78
2022/04/27 04:20:44;;;;;;;0.80;0.80;;;;;;;8.19;100.00;99600.25;5033609;28;20632;-76
2022/04/27 04:23:31;;;;;;;0.80;0.80;;;;;;;8.03;100.00;99597.97;5033386;28;20296;-75
2022/04/27 04:28:51;;;;;;;1.43;0.90;;;;;;;8.23;100.00;99611.34;5033454;28;20220;-75
2022/04/27 04:31:18;;;;;;;0.80;0.80;;;;;;;8.19;100.00;99607.44;5033517;28;20199;-76
2022/04/27 04:34:07;;;;;;;1.00;0.90;;;;;;;8.14;100.00;99609.91;5020518;28;20195;-76
2022/04/27 04:36:34;;;;;;;1.03;1.00;;;;;;;8.28;100.00;99611.56;5033215;28;20277;-76
2022/04/27 04:39:01;;;;;;;0.87;0.87;;;;;;;8.28;100.00;99612.38;5017262;28;20273;-75
2022/04/27 04:41:31;;;;;;;1.13;1.07;;;;;;;8.28;100.00;99615.03;5032913;28;20227;-75
2022/04/27 04:43:58;;;;;;;1.30;1.20;;;;;;;8.21;100.00;99624.09;5033423;28;20585;-75
2022/04/27 04:46:27;;;;;;;1.63;1.17;;;;;;;8.39;100.00;99627.00;5033128;28;20194;-75
2022/04/27 04:49:14;;;;;;;1.50;1.40;;;;;;;8.24;100.00;99626.34;5034805;28;20179;-76
2022/04/27 04:52:11;;;;;;;1.23;1.13;;;;;;;8.30;100.00;99636.25;5033211;28;20478;-75
2022/04/27 04:55:04;;;;;;;1.63;1.40;;;;;;;8.15;100.00;99632.91;5003714;28;20198;-75
2022/04/27 04:57:51;;;;;;;1.30;1.20;;;;;;;8.18;100.00;99646.66;4993559;28;20632;-76
2022/04/27 05:00:37;;;;;;;1.53;1.43;;;;;;;8.27;100.00;99652.63;5019217;28;20163;-74
2022/04/27 05:03:23;;;;;;;1.83;1.40;;;;;;;8.26;100.00;99654.44;5033990;28;20252;-75
2022/04/27 05:06:08;;;;;;;1.40;1.30;;;;;;;8.24;100.00;99661.84;5033454;28;20674;-75
2022/04/27 05:09:01;;;;;;;1.70;1.33;;;;;;;8.25;100.00;99666.19;5029020;28;20313;-75
2022/04/27 05:11:59;;;;;;;1.70;1.60;;;;;;;8.24;100.00;99663.72;5033068;28;20194;-75
2022/04/27 05:14:58;;;;;;;1.53;1.43;;;;;;;8.27;100.00;99663.28;4978153;28;20374;-75
2022/04/27 05:17:53;;;;;;;1.93;1.30;;;;;;;8.27;100.00;99658.78;5032654;28;20240;-75
2022/04/27 05:20:39;;;;;;;1.70;1.60;;;;;;;8.23;100.00;99656.72;5032923;28;20622;-75
2022/04/27 05:23:35;;;;;;;1.40;1.30;;;;;;;8.16;100.00;99656.72;5023790;28;20640;-75
2022/04/27 05:26:21;;;;;;;1.50;1.40;;;;;;;8.28;100.00;99668.44;5053778;28;20615;-75
2022/04/27 05:32:24;;;;;;;2.03;1.93;;;;;;;8.27;100.00;99677.47;5033758;28;20193;-76
2022/04/27 05:35:01;;;;;;;2.60;1.73;;;;;;;8.33;100.00;99666.00;5036284;28;20182;-76
2022/04/27 05:37:51;;;;;;;2.00;1.80;;;;;;;8.34;100.00;99674.84;5022241;28;20259;-76
2022/04/27 05:40:43;;;;;;;2.00;1.90;;;;;;;8.48;100.00;99678.34;5052575;28;20189;-75
2022/04/27 05:43:19;;;;;;;2.10;1.90;;;;;;;8.52;100.00;99685.72;5035391;28;20247;-75
2022/04/27 05:45:58;;;;;;;2.20;2.00;;;;;;;8.72;100.00;99680.41;5035165;28;20599;-75
2022/04/27 05:48:39;;;;;;;2.23;2.03;;;;;;;8.83;100.00;99691.28;5052792;28;20221;-76
2022/04/27 05:51:14;;;;;;;2.20;2.00;;;;;;;9.00;100.00;99697.03;5036840;28;20173;-75
2022/04/27 05:53:41;;;;;;;2.00;1.80;;;;;;;9.10;100.00;99701.91;5035615;28;20182;-76
2022/04/27 05:56:27;;;;;;;2.83;1.90;;;;;;;9.26;100.00;99709.50;5053524;28;20335;-76
2022/04/27 05:59:21;;;;;;;2.60;1.93;;;;;;;9.36;100.00;99709.91;5035083;28;20190;-75
2022/04/27 06:01:59;;;;;;;2.50;1.70;;;;;;;9.44;100.00;99712.34;5036839;28;20198;-76
2022/04/27 06:04:28;;;;;;;2.13;1.93;;;;;;;9.35;100.00;99721.63;5034940;28;20214;-75
2022/04/27 06:06:54;;;;;;;2.83;1.90;;;;;;;9.26;100.00;99723.69;5018189;28;20555;-75
2022/04/27 06:09:22;;;;;;;2.90;1.87;;;;;;;9.29;100.00;99711.75;5035001;28;20182;-76
2022/04/27 06:11:58;;;;;;;2.40;2.20;;;;;;;9.49;100.00;99719.72;5019466;28;20603;-76
2022/04/27 06:14:31;;;;;;;3.37;2.20;;;;;;;9.65;100.00;99712.09;5053061;28;20568;-75
2022/04/27 06:17:00;;;;;;;2.77;1.90;;;;;;;9.73;100.00;99713.69;5034142;28;20189;-76
2022/04/27 06:19:26;;;;;;;2.50;2.30;;;;;;;9.88;100.00;99721.44;5018027;28;20189;-76
2022/04/27 06:21:54;;;;;;;3.00;2.43;;;;;;;10.00;100.00;99728.59;5034409;28;20189;-76
2022/04/27 06:24:22;;;;;;;3.53;2.63;;;;;;;10.09;100.00;99726.47;5033981;28;20245;-75
2022/04/27 06:26:54;;;;;;;3.10;2.80;;;;;;;10.32;100.00;99717.94;5034332;28;20459;-75
2022/04/27 06:29:21;;;;;;;2.73;2.53;;;;;;;10.52;100.00;99719.47;5034616;28;20189;-75
2022/04/27 06:31:50;;;;;;;3.43;3.13;;;;;;;10.69;100.00;99722.41;5034153;28;20224;-75
2022/04/27 06:34:17;;;;;;;3.13;2.90;;;;;;;10.82;100.00;99725.00;5034558;28;20194;-75
2022/04/27 06:36:44;;;;;;;3.63;3.33;;;;;;;11.00;100.00;99735.78;5033880;28;20438;-76
2022/04/27 06:39:26;;;;;;;3.40;3.10;;;;;;;11.01;100.00;99729.34;5034464;28;20201;-75
2022/04/27 06:41:53;;;;;;;3.40;3.10;;;;;;;11.23;100.00;99727.13;5034318;28;20643;-75
2022/04/27 06:44:33;;;;;;;3.50;3.00;;;;;;;11.41;100.00;99727.13;5052333;28;20206;-75
2022/04/27 06:47:19;;;;;;;2.77;2.53;;;;;;;11.56;100.00;99723.25;5037318;28;20482;-76
2022/04/27 06:50:06;;;;;;;3.10;2.60;;;;;;;11.83;100.00;99714.72;5052154;28;20599;-76
2022/04/27 06:52:59;;;;;;;2.30;2.10;;;;;;;11.81;100.00;99716.78;5005142;28;20194;-76
2022/04/27 06:55:45;;;;;;;2.03;1.90;;;;;;;11.80;100.00;99723.19;5037541;28;20238;-76
2022/04/27 06:58:40;;;;;;;2.20;2.10;;;;;;;11.79;100.00;99712.69;5021276;28;20193;-75
2022/04/27 07:01:18;;;;;;;3.73;2.07;;;;;;;12.00;100.00;99722.13;5034173;28;20543;-75
2022/04/27 07:03:45;;;;;;;2.00;1.90;;;;;;;11.88;100.00;99719.41;5051331;28;20209;-75
2022/04/27 07:06:12;;;;;;;1.93;1.73;;;;;;;11.80;100.00;99723.19;5017864;28;20190;-75
2022/04/27 07:08:39;;;;;;;2.07;1.83;;;;;;;12.02;100.00;99725.41;5017333;28;20224;-75
2022/04/27 07:11:06;;;;;;;1.90;1.80;;;;;;;11.80;100.00;99717.81;5033934;28;20500;-76
2022/04/27 07:13:32;;;;;;;1.70;1.60;;;;;;;12.01;100.00;99721.91;5051585;28;20265;-75
2022/04/27 07:16:00;;;;;;;1.63;1.50;;;;;;;11.89;100.00;99716.50;5051729;28;20258;-78
2022/04/27 07:18:29;;;;;;;1.70;1.30;;;;;;;11.78;100.00;99714.56;5051657;28;20261;-75
2022/04/27 07:20:56;;;;;;;1.93;1.40;;;;;;;11.73;100.00;99725.16;5033993;28;20209;-75
2022/04/27 07:23:23;;;;;;;1.30;1.00;;;;;;;11.43;100.00;99727.72;5013737;28;20611;-75
2022/04/27 07:25:50;;;;;;;0.90;0.90;;;;;;;11.33;100.00;99731.97;5031538;28;20228;-79
2022/04/27 07:28:17;;;;;;;1.13;1.00;;;;;;;11.30;100.00;99735.91;5031817;28;20197;-74
2022/04/27 07:30:44;;;;;;;1.07;0.93;;;;;;;11.31;100.00;99731.34;5030674;28;20198;-76
2022/04/27 07:33:11;;;;;;;0.80;0.80;;;;;;;11.26;100.00;99744.59;5031348;28;20621;-78
2022/04/27 07:35:38;;;;;;;1.10;1.00;;;;;;;11.28;100.00;99754.09;5031045;28;20225;-75
2022/04/27 07:38:05;;;;;;;0.80;0.80;;;;;;;11.19;100.00;99750.06;5030123;28;20221;-75
2022/04/27 07:40:32;;;;;;;1.10;1.00;;;;;;;11.12;100.00;99749.28;5029775;28;20178;-76
2022/04/27 07:42:59;;;;;;;1.00;0.90;;;;;;;11.11;100.00;99755.69;5030241;28;20190;-77
2022/04/27 07:45:27;;;;;;;0.90;0.90;;;;;;;11.05;100.00;99761.94;5029925;28;20202;-75
2022/04/27 07:47:54;;;;;;;1.13;0.87;;;;;;;10.98;100.00;99763.84;5031560;28;20511;-77
2022/04/27 07:50:21;;;;;;;0.80;0.80;;;;;;;10.91;100.00;99768.44;5031553;28;20221;-75
2022/04/27 07:52:48;;;;;;;1.40;1.20;;;;;;;10.98;100.00;99769.19;5029837;28;20245;-75
2022/04/27 07:55:15;;;;;;;1.20;1.10;;;;;;;10.99;100.00;99774.34;5024396;28;20230;-75
2022/04/27 07:57:41;;;;;;;1.73;1.30;;;;;;;10.81;100.00;99763.56;5003786;28;20273;-76
2022/04/27 08:00:11;;;;;;;2.43;1.40;;;;;;;10.81;100.00;99768.94;5011351;28;20198;-76
2022/04/27 08:02:40;;;;;;;1.60;1.50;;;;;;;10.65;100.00;99766.75;5010012;28;20191;-75
2022/04/27 08:05:08;;;;;;;1.40;1.30;;;;;;;10.72;100.00;99783.63;5010171;28;20211;-76
2022/04/27 08:07:39;;;;;;;1.70;1.60;;;;;;;10.74;100.00;99786.91;5010142;28;20540;-75
2022/04/27 08:10:13;;;;;;;1.83;1.40;;;;;;;10.84;100.00;99787.25;5010542;28;20539;-76
2022/04/27 08:12:41;;;;;;;2.03;1.63;;;;;;;10.83;100.00;99787.44;5011050;28;20233;-76
2022/04/27 08:15:08;;;;;;;3.33;1.90;;;;;;;10.81;100.00;99795.72;5011424;28;20617;-77
2022/04/27 08:17:34;;;;;;;1.90;1.80;;;;;;;10.84;100.00;99797.13;5011446;28;20222;-75
2022/04/27 08:22:47;;;;;;;2.93;1.80;;;;;;;10.76;100.00;99786.69;5011064;28;20179;-76
2022/04/27 08:25:14;;;;;;;1.73;1.50;;;;;;;10.79;100.00;99796.97;5030933;28;20199;-75
2022/04/27 08:27:41;;;;;;;1.50;1.40;;;;;;;10.85;100.00;99796.94;5013630;28;20210;-75
2022/04/27 08:30:08;;;;;;;1.67;1.57;;;;;;;10.76;100.00;99802.78;5013250;28;20225;-76
2022/04/27 08:32:35;;;;;;;1.97;1.50;;;;;;;10.72;100.00;99796.22;5030806;28;20222;-76
2022/04/27 08:35:02;;;;;;;2.33;2.13;;;;;;;10.66;100.00;99792.53;5030980;28;20270;-76
2022/04/27 08:37:28;;;;;;;2.07;1.87;;;;;;;10.68;100.00;99797.69;5013143;28;20190;-75
2022/04/27 08:39:55;;;;;;;2.03;1.87;;;;;;;10.62;100.00;99791.31;5013565;28;20218;-76
2022/04/27 08:42:22;;;;;;;2.23;2.03;;;;;;;10.58;100.00;99793.63;5033882;28;20214;-76
2022/04/27 08:44:49;;;;;;;2.00;1.83;;;;;;;10.51;100.00;99797.34;5017206;28;20274;-76
2022/04/27 08:47:16;;;;;;;2.40;1.90;;;;;;;10.51;100.00;99795.50;5016846;28;20194;-76
2022/04/27 08:49:42;;;;;;;2.40;2.20;;;;;;;10.60;100.00;99794.19;5000903;28;20270;-76
2022/04/27 08:52:12;;;;;;;2.10;1.90;;;;;;;10.76;100.00;99795.56;5016881;28;20225;-76
2022/04/27 08:54:40;;;;;;;2.00;1.77;;;;;;;10.55;100.00;99788.66;5016969;28;20236;-76
2022/04/27 08:57:07;;;;;;;2.20;1.80;;;;;;;10.53;100.00;99788.09;5015743;28;20214;-75
2022/04/27 08:59:33;;;;;;;1.80;1.70;;;;;;;10.65;100.00;99792.72;5034779;28;20551;-76
2022/04/27 09:02:23;;;;;;;2.30;2.10;;;;;;;10.52;100.00;99786.44;5034195;28;20759;-76
2022/04/27 09:05:15;;;;;;;2.03;1.83;;;;;;;10.51;100.00;99790.13;5001521;28;20207;-76
2022/04/27 09:07:43;;;;;;;2.67;2.00;;;;;;;10.49;100.00;99792.22;4983126;28;20523;-75
2022/04/27 09:10:15;;;;;;;2.10;1.90;;;;;;;10.60;100.00;99790.69;5014114;28;20270;-75
2022/04/27 09:12:52;;;;;;;2.10;1.73;;;;;;;10.67;100.00;99798.72;5027730;28;20187;-75
2022/04/27 09:15:21;;;;;;;1.90;1.80;;;;;;;10.69;100.00;99792.09;5033038;28;20585;-75
2022/04/27 09:20:47;;;;;;;2.93;1.90;;;;;;;10.83;100.00;99793.63;4998798;28;20641;-76
2022/04/27 09:23:37;;;;;;;2.07;1.70;;;;;;;10.85;100.00;99806.84;4997440;28;20563;-75
2022/04/27 09:26:14;;;;;;;1.60;1.50;;;;;;;10.74;100.00;99802.97;5032784;28;20174;-75
2022/04/27 09:28:46;;;;;;;1.80;1.63;;;;;;;10.74;100.00;99802.16;5033401;28;20178;-77
2022/04/27 09:31:25;;;;;;;1.67;1.57;;;;;;;10.74;100.00;99802.97;4999632;28;20286;-75
2022/04/27 09:37:21;;;;;;;2.63;1.60;;;;;;;10.75;100.00;99812.66;5033036;28;20213;-76
2022/04/27 09:40:07;;;;;;;1.90;1.80;;;;;;;10.69;100.00;99797.44;5026760;28;20558;-76
2022/04/27 09:42:38;;;;;;;2.10;1.90;;;;;;;10.65;100.00;99803.44;5001443;28;20277;-78
2022/04/27 09:45:20;;;;;;;1.93;1.83;;;;;;;10.68;100.00;99811.06;4995638;28;20487;-76
2022/04/27 09:47:48;;;;;;;2.10;1.87;;;;;;;10.71;100.00;99816.00;5012809;28;20254;-78
2022/04/27 09:50:17;;;;;;;2.60;1.67;;;;;;;10.64;100.00;99818.69;5007590;28;20210;-76
2022/04/27 09:52:44;;;;;;;2.03;1.90;;;;;;;10.57;100.00;99828.66;5014850;28;20205;-76
2022/04/27 09:55:11;;;;;;;1.90;1.80;;;;;;;10.69;100.00;99828.78;5033448;28;20540;-76
2022/04/27 09:57:42;;;;;;;2.40;2.00;;;;;;;10.64;100.00;99829.41;5032622;28;20185;-76
2022/04/27 10:00:12;;;;;;;1.93;1.80;;;;;;;10.47;100.00;99829.13;5015089;28;20262;-76
2022/04/27 10:02:43;;;;;;;2.50;2.00;;;;;;;10.52;100.00;99831.97;5015462;28;20213;-76
2022/04/27 10:05:10;;;;;;;2.00;1.80;;;;;;;10.51;100.00;99830.31;5010141;28;20396;-75
2022/04/27 10:07:37;;;;;;;1.93;1.83;;;;;;;10.56;100.00;99832.34;5033336;28;20225;-77
2022/04/27 10:10:07;;;;;;;2.30;1.90;;;;;;;10.69;100.00;99831.44;5001084;28;20253;-76
2022/04/27 10:12:37;;;;;;;2.40;2.03;;;;;;;10.72;100.00;99837.22;5032333;28;20190;-76
2022/04/27 10:15:05;;;;;;;2.50;2.03;;;;;;;10.82;100.00;99832.22;5032633;28;20202;-76
2022/04/27 10:17:33;;;;;;;2.57;2.37;;;;;;;10.68;100.00;99837.88;5015212;28;20186;-76
2022/04/27 10:20:00;;;;;;;1.90;1.80;;;;;;;10.70;100.00;99838.47;5032836;28;20241;-77
2022/04/27 10:22:32;;;;;;;2.50;2.30;;;;;;;10.74;100.00;99843.19;5032650;28;20280;-76
2022/04/27 10:25:06;;;;;;;2.30;2.10;;;;;;;10.85;100.00;99839.81;4998712;28;20536;-77
2022/04/27 10:27:36;;;;;;;2.97;2.50;;;;;;;10.87;100.00;99839.63;5015116;28;20558;-76
2022/04/27 10:30:07;;;;;;;2.60;2.40;;;;;;;10.90;100.00;99844.53;5014830;28;20225;-76
2022/04/27 10:32:38;;;;;;;2.63;2.43;;;;;;;10.89;100.00;99843.72;5014886;28;20187;-76
2022/04/27 10:35:11;;;;;;;2.90;2.70;;;;;;;11.00;100.00;99834.16;5014982;28;20277;-77
2022/04/27 10:38:02;;;;;;;4.03;3.00;;;;;;;11.01;100.00;99833.13;5031787;28;20218;-76
2022/04/27 10:40:40;;;;;;;4.37;3.93;;;;;;;11.09;100.00;99821.31;5032160;28;20179;-77
2022/04/27 10:43:07;;;;;;;4.37;3.50;;;;;;;10.92;100.00;99816.44;4998165;28;20194;-75
2022/04/27 10:45:35;;;;;;;3.77;3.30;;;;;;;11.06;100.00;99825.22;5032304;28;20256;-76
2022/04/27 10:48:06;;;;;;;3.30;3.00;;;;;;;11.15;100.00;99823.13;4998231;28;20265;-76
2022/04/27 10:50:36;;;;;;;3.50;3.20;;;;;;;11.12;100.00;99834.25;5031563;28;20178;-76
2022/04/27 10:53:23;;;;;;;3.60;3.13;;;;;;;11.22;100.00;99821.19;5032503;28;20233;-76
2022/04/27 10:55:55;;;;;;;3.43;3.13;;;;;;;11.12;100.00;99815.50;5031466;28;20175;-76
2022/04/27 10:58:31;;;;;;;3.37;3.00;;;;;;;11.05;100.00;99820.91;5014459;28;20210;-76
2022/04/27 11:00:58;;;;;;;5.13;3.50;;;;;;;11.06;100.00;99821.75;5031275;28;20188;-76
2022/04/27 11:03:35;;;;;;;4.00;3.70;;;;;;;11.07;100.00;99818.81;5013432;28;20198;-76
2022/04/27 11:06:08;;;;;;;3.17;2.97;;;;;;;11.10;100.00;99822.94;5014439;28;20202;-77
2022/04/27 11:08:54;;;;;;;4.20;3.80;;;;;;;11.21;100.00;99815.00;5014184;28;20625;-76
2022/04/27 11:11:24;;;;;;;3.87;3.53;;;;;;;11.27;100.00;99813.31;5031422;28;20170;-75
2022/04/27 11:13:51;;;;;;;4.00;3.60;;;;;;;11.48;100.00;99820.94;5013726;28;20284;-76
2022/04/27 11:16:18;;;;;;;3.60;3.30;;;;;;;11.63;100.00;99816.06;5014168;28;20606;-76
2022/04/27 11:18:49;;;;;;;3.73;3.43;;;;;;;11.58;100.00;99820.44;5014373;28;20494;-75
2022/04/27 11:21:19;;;;;;;3.50;3.20;;;;;;;11.61;100.00;99820.03;5031740;28;20210;-75
2022/04/27 11:23:46;;;;;;;3.63;3.33;;;;;;;11.57;100.00;99818.81;5013961;28;20257;-76
2022/04/27 11:26:14;;;;;;;3.70;3.37;;;;;;;11.54;100.00;99806.66;5031399;28;20634;-76
2022/04/27 11:28:45;;;;;;;3.70;3.40;;;;;;;11.74;100.00;99812.69;5014533;28;20227;-76
2022/04/27 11:31:13;;;;;;;4.33;3.80;;;;;;;11.75;100.00;99813.50;5031592;28;20619;-77
2022/04/27 11:33:40;;;;;;;3.83;3.50;;;;;;;11.70;100.00;99814.16;5014004;28;20182;-76
2022/04/27 11:36:22;;;;;;;3.87;3.43;;;;;;;11.71;100.00;99805.03;5014078;28;20186;-75
2022/04/27 11:38:50;;;;;;;5.57;3.93;;;;;;;11.85;100.00;99806.56;5013703;28;20259;-76
2022/04/27 11:41:21;;;;;;;3.80;3.47;;;;;;;11.61;100.00;99809.28;4997336;28;20294;-75
2022/04/27 11:43:49;;;;;;;4.97;3.50;;;;;;;11.57;100.00;99803.53;5031212;28;20185;-77
2022/04/27 11:46:15;;;;;;;3.73;3.43;;;;;;;11.55;100.00;99799.44;5013371;28;20289;-75
2022/04/27 11:48:53;;;;;;;5.03;3.53;;;;;;;11.73;100.00;99789.56;5023322;28;20210;-76
2022/04/27 11:51:20;;;;;;;4.40;3.63;;;;;;;11.58;100.00;99797.13;4994563;28;20234;-75
2022/04/27 11:53:48;;;;;;;3.67;3.37;;;;;;;11.59;100.00;99797.94;4993905;28;20508;-75
2022/04/27 11:56:16;;;;;;;3.77;3.40;;;;;;;11.49;100.00;99798.44;5011208;28;20187;-75
2022/04/27 11:58:46;;;;;;;4.20;3.53;;;;;;;11.68;100.00;99792.06;5011506;28;20203;-76
2022/04/27 12:01:20;;;;;;;3.60;3.30;;;;;;;11.65;100.00;99797.06;5011202;28;20191;-75
2022/04/27 12:03:49;;;;;;;3.30;3.00;;;;;;;11.77;100.00;99795.31;4999656;28;20659;-76
2022/04/27 12:06:21;;;;;;;3.10;2.80;;;;;;;11.83;100.00;99791.72;5030851;28;20203;-75
2022/04/27 12:08:48;;;;;;;3.70;2.90;;;;;;;11.79;100.00;99786.00;5030771;28;20644;-78
2022/04/27 12:11:25;;;;;;;3.40;3.10;;;;;;;11.84;100.00;99785.31;5013386;28;20576;-75